Time;durP1;ratioP1;P1;durP2;ratioP2;P2;SDS_P1;SDS_P2;PMS_P1;PMS_P2;Temp;Humidity;BMP_temperature;BMP_pressure;BME280_temperature;BME280_humidity;BME280_pressure;Samples;Min_cycle;Max_cycle;Signal;HPM_P1;HPM_P2
2022/11/11 00:01:15;;;;;;;8.10;2.27;;;;;;;6.39;100.00;97897.28;10416371;28;20635;-75
2022/11/11 00:06:34;;;;;;;4.37;1.73;;;;;;;6.43;100.00;97896.13;10413485;28;20685;-75
2022/11/11 00:11:53;;;;;;;3.83;1.67;;;;;;;6.33;100.00;97898.53;10415724;28;20197;-75
2022/11/11 00:28:28;;;;;;;8.03;2.47;;;;;;;5.57;100.00;97920.63;10414520;28;20213;-75
2022/11/11 00:33:47;;;;;;;8.83;2.30;;;;;;;5.44;100.00;97932.75;10414349;28;20192;-75
2022/11/11 00:39:06;;;;;;;6.50;2.43;;;;;;;5.07;100.00;97946.19;10412753;28;20616;-75
2022/11/11 00:44:25;;;;;;;5.57;2.20;;;;;;;4.78;100.00;97961.72;10414160;28;20564;-74
2022/11/11 00:55:22;;;;;;;6.10;2.07;;;;;;;4.77;100.00;97967.00;10413547;28;20264;-75
2022/11/11 01:00:40;;;;;;;6.77;2.13;;;;;;;4.57;100.00;97963.78;10413907;28;20197;-75
2022/11/11 01:06:00;;;;;;;4.20;2.03;;;;;;;4.45;100.00;97959.31;10413022;28;20216;-75
2022/11/11 01:11:21;;;;;;;6.53;2.30;;;;;;;4.55;100.00;97957.88;10413662;28;20197;-75
2022/11/11 01:16:40;;;;;;;9.63;2.47;;;;;;;4.30;100.00;97950.63;10412673;28;20212;-75
2022/11/11 01:21:59;;;;;;;8.67;2.47;;;;;;;4.46;100.00;97940.22;10412864;28;20196;-75
2022/11/11 01:27:18;;;;;;;12.00;2.50;;;;;;;4.31;100.00;97939.34;10412407;28;20684;-75
2022/11/11 01:32:37;;;;;;;15.20;3.30;;;;;;;4.24;100.00;97931.06;10412368;28;20245;-75
2022/11/11 01:37:57;;;;;;;7.60;2.40;;;;;;;4.30;100.00;97935.06;10411845;28;20307;-75
2022/11/11 01:43:20;;;;;;;7.77;2.40;;;;;;;4.34;100.00;97940.94;10411911;28;20220;-75
2022/11/11 01:54:28;;;;;;;7.70;2.30;;;;;;;4.04;100.00;97942.56;10398744;28;20817;-74
2022/11/11 01:59:49;;;;;;;2.50;1.63;;;;;;;3.98;100.00;97939.47;10395880;28;20192;-74
2022/11/11 02:10:49;;;;;;;6.93;1.90;;;;;;;3.72;100.00;97946.91;10410869;28;20189;-75
2022/11/11 02:16:08;;;;;;;4.87;1.90;;;;;;;3.71;100.00;97947.84;10395167;28;20393;-74
2022/11/11 02:21:34;;;;;;;12.67;2.40;;;;;;;3.69;100.00;97947.06;10410239;28;20188;-75
2022/11/11 02:26:54;;;;;;;11.67;2.77;;;;;;;3.83;100.00;97935.94;10395026;28;20228;-75
2022/11/11 02:32:13;;;;;;;7.57;2.47;;;;;;;3.83;100.00;97931.63;10394987;28;20677;-74
2022/11/11 02:37:32;;;;;;;5.00;1.87;;;;;;;4.20;100.00;97929.56;10409303;28;20767;-75
2022/11/11 02:42:52;;;;;;;6.80;2.10;;;;;;;4.49;100.00;97924.47;10409715;28;20282;-75
2022/11/11 02:48:10;;;;;;;10.30;2.93;;;;;;;4.34;100.00;97917.59;10408223;28;20229;-75
2022/11/11 02:53:29;;;;;;;5.47;1.97;;;;;;;4.46;100.00;97917.69;10409833;28;20181;-75
2022/11/11 02:58:48;;;;;;;9.10;2.07;;;;;;;5.12;100.00;97925.97;10409443;28;20196;-75
2022/11/11 03:04:07;;;;;;;7.80;2.20;;;;;;;5.17;100.00;97923.91;10408837;28;20193;-75
2022/11/11 03:09:26;;;;;;;8.27;1.90;;;;;;;5.12;100.00;97917.34;10406190;28;20263;-75
2022/11/11 03:14:45;;;;;;;6.47;1.50;;;;;;;5.39;100.00;97919.19;10407941;28;20196;-75
2022/11/11 03:25:47;;;;;;;3.60;1.30;;;;;;;6.42;100.00;97910.94;10405846;28;20228;-75
2022/11/11 03:31:06;;;;;;;7.97;1.80;;;;;;;6.63;100.00;97913.06;10407466;28;20196;-75
2022/11/11 03:38:14;;;;;;;9.63;1.70;;;;;;;6.65;100.00;97907.75;10392245;28;20229;-75
2022/11/11 03:42:04;;;;;;;5.03;1.50;;;;;;;6.74;100.00;97910.56;10408005;28;20205;-75
2022/11/11 03:47:22;;;;;;;6.13;1.60;;;;;;;6.55;100.00;97921.34;10406289;28;20673;-75
2022/11/11 03:52:42;;;;;;;4.23;1.23;;;;;;;6.58;100.00;97913.38;10407431;28;20196;-75
2022/11/11 03:58:01;;;;;;;2.60;1.30;;;;;;;6.37;100.00;97913.00;10407481;28;20193;-75
2022/11/11 04:25:52;;;;;;;6.73;1.33;;;;;;;5.95;100.00;97940.00;10405778;28;20224;-75
2022/11/11 04:31:11;;;;;;;2.90;1.50;;;;;;;5.92;100.00;97940.19;10405880;28;20201;-75
2022/11/11 04:36:30;;;;;;;6.73;1.53;;;;;;;5.91;100.00;97939.31;10404984;28;20241;-75
2022/11/11 04:41:49;;;;;;;6.17;1.30;;;;;;;5.77;100.00;97934.16;10406484;28;20196;-75
2022/11/11 04:47:08;;;;;;;3.07;1.20;;;;;;;5.81;100.00;97928.69;10405490;28;20608;-75
2022/11/11 04:52:30;;;;;;;5.87;1.60;;;;;;;5.87;100.00;97930.06;10406111;28;20204;-75
2022/11/11 04:57:49;;;;;;;5.07;1.30;;;;;;;5.80;100.00;97918.38;10405526;28;20192;-75
2022/11/11 05:03:15;;;;;;;5.13;1.20;;;;;;;5.82;100.00;97913.91;10409507;28;20595;-75
2022/11/11 05:08:55;;;;;;;3.90;1.50;;;;;;;5.78;100.00;97915.03;10412714;28;20217;-75
2022/11/11 05:25:32;;;;;;;3.90;1.70;;;;;;;6.49;100.00;97868.88;10411254;28;20220;-75
2022/11/11 05:30:51;;;;;;;2.73;1.03;;;;;;;7.03;100.00;97847.00;10412083;28;20196;-75
2022/11/11 05:36:10;;;;;;;5.00;1.30;;;;;;;7.25;100.00;97846.34;10410961;28;20228;-75
2022/11/11 05:41:29;;;;;;;4.53;1.60;;;;;;;7.60;97.21;97828.19;10411574;28;20208;-75
2022/11/11 05:46:48;;;;;;;3.90;1.40;;;;;;;7.59;96.07;97849.16;10411396;28;20307;-75
2022/11/11 05:52:10;;;;;;;1.53;1.10;;;;;;;7.62;95.30;97859.38;10411687;28;20201;-75
2022/11/11 05:57:29;;;;;;;3.40;0.97;;;;;;;7.72;93.64;97851.72;10410777;28;20192;-74
2022/11/11 06:02:48;;;;;;;4.17;1.27;;;;;;;7.40;95.15;97868.72;10410473;28;20671;-75
2022/11/11 06:08:07;;;;;;;3.60;1.13;;;;;;;7.51;95.19;97865.38;10410156;28;20233;-75
2022/11/11 06:13:26;;;;;;;7.00;1.43;;;;;;;7.55;94.34;97879.00;10409765;28;20201;-75
2022/11/11 06:18:45;;;;;;;5.40;1.00;;;;;;;7.79;92.45;97864.22;10436541;28;20208;-75
2022/11/11 06:24:04;;;;;;;2.80;1.23;;;;;;;7.89;91.25;97855.72;10409736;28;20193;-75
2022/11/11 06:29:23;;;;;;;1.67;0.83;;;;;;;7.89;90.95;97868.75;10409501;28;20220;-75
2022/11/11 06:34:42;;;;;;;3.40;0.90;;;;;;;7.82;91.27;97860.56;10409329;28;20224;-75
2022/11/11 06:40:01;;;;;;;2.73;0.80;;;;;;;7.70;92.13;97875.31;10407983;28;20240;-75
2022/11/11 06:45:20;;;;;;;2.87;0.87;;;;;;;7.85;91.44;97871.59;10408846;28;20217;-75
2022/11/11 06:50:39;;;;;;;8.53;1.83;;;;;;;8.01;89.73;97876.56;10402915;28;20283;-75
2022/11/11 06:55:58;;;;;;;5.53;1.00;;;;;;;8.36;87.49;97862.69;10405833;28;20196;-75
2022/11/11 07:01:17;;;;;;;4.37;1.10;;;;;;;8.56;85.99;97842.13;10409321;28;20193;-74
2022/11/11 07:06:36;;;;;;;5.30;1.10;;;;;;;8.69;85.01;97836.78;10407993;28;20228;-75
2022/11/11 07:11:55;;;;;;;6.33;1.10;;;;;;;8.71;83.86;97827.06;10402365;28;20200;-75
2022/11/11 07:17:14;;;;;;;3.53;1.17;;;;;;;8.88;82.92;97837.06;10407783;28;20672;-75
2022/11/11 07:22:36;;;;;;;3.70;0.90;;;;;;;8.97;82.91;97832.06;10408003;28;20196;-75
2022/11/11 07:27:55;;;;;;;2.57;1.10;;;;;;;9.05;81.94;97827.91;10407681;28;20228;-74
2022/11/11 07:33:14;;;;;;;1.50;1.20;;;;;;;9.21;80.90;97821.47;10388574;28;20197;-75
2022/11/11 07:38:33;;;;;;;1.83;1.00;;;;;;;9.43;80.04;97829.31;10383395;28;20311;-75
2022/11/11 07:43:52;;;;;;;2.67;0.90;;;;;;;9.77;77.64;97803.06;10366556;28;20197;-75
2022/11/11 07:49:11;;;;;;;2.10;0.87;;;;;;;9.80;77.85;97821.13;10368051;28;20225;-75
2022/11/11 07:54:30;;;;;;;4.87;1.20;;;;;;;9.98;77.19;97828.41;10359921;28;20193;-74
2022/11/11 07:59:49;;;;;;;4.60;0.90;;;;;;;10.21;75.61;97818.69;10374608;28;20650;-75
2022/11/11 08:05:08;;;;;;;5.80;1.00;;;;;;;10.51;74.42;97825.00;10429162;28;20212;-74
2022/11/11 08:10:27;;;;;;;3.93;1.23;;;;;;;11.38;71.63;97821.91;10398458;28;20205;-74
2022/11/11 08:15:47;;;;;;;3.75;1.17;;;;;;;11.60;70.90;97817.41;10379052;28;20189;-75
2022/11/11 08:21:06;;;;;;;3.13;0.80;;;;;;;11.66;69.47;97823.91;10372652;28;20205;-75
2022/11/11 08:26:26;;;;;;;3.85;1.20;;;;;;;11.86;67.74;97811.63;10403816;28;20624;-75
2022/11/11 08:31:45;;;;;;;7.38;1.50;;;;;;;13.00;65.83;97802.06;10411981;28;20201;-75
2022/11/11 08:37:04;;;;;;;2.47;1.30;;;;;;;13.43;61.76;97760.34;10408759;28;20697;-75
2022/11/11 08:42:23;;;;;;;5.03;0.82;;;;;;;13.42;62.07;97787.63;10416392;28;20204;-75
2022/11/11 08:47:43;;;;;;;2.65;1.00;;;;;;;13.18;60.37;97754.78;10406924;28;20810;-74
2022/11/11 08:53:02;;;;;;;2.90;1.02;;;;;;;12.18;64.48;97811.38;10390548;28;20236;-74
2022/11/11 08:58:20;;;;;;;2.90;0.70;;;;;;;11.80;64.48;97814.81;10403394;28;20193;-74
2022/11/11 09:03:42;;;;;;;5.55;1.00;;;;;;;12.00;64.43;97824.38;10409728;28;20197;-74
2022/11/11 09:09:02;;;;;;;4.43;0.80;;;;;;;11.91;64.99;97823.41;10410665;28;20240;-75
2022/11/11 09:14:20;;;;;;;3.05;1.00;;;;;;;11.92;64.69;97822.44;10399383;28;20560;-74
2022/11/11 09:19:39;;;;;;;2.17;0.93;;;;;;;12.10;62.78;97809.47;10446576;28;20195;-74
2022/11/11 09:24:58;;;;;;;1.95;0.80;;;;;;;12.02;64.64;97837.38;10451412;28;20192;-75
2022/11/11 09:30:17;;;;;;;2.17;0.93;;;;;;;12.07;64.34;97824.69;10451581;28;20191;-74
2022/11/11 09:35:37;;;;;;;1.83;0.70;;;;;;;12.48;62.46;97810.38;10450546;28;20640;-74
2022/11/11 09:41:12;;;;;;;1.15;0.80;;;;;;;12.69;61.71;97812.00;10450756;28;20203;-75
2022/11/11 09:46:34;;;;;;;3.58;0.98;;;;;;;13.13;61.57;97828.03;10444168;28;20224;-75
2022/11/11 09:52:19;;;;;;;3.25;0.73;;;;;;;13.54;59.05;97799.59;10409278;28;20196;-74
2022/11/11 09:57:44;;;;;;;2.95;0.95;;;;;;;13.89;58.88;97808.50;10409222;28;20664;-74
2022/11/11 10:03:09;;;;;;;4.18;1.20;;;;;;;13.66;59.19;97808.13;10408242;28;20645;-75
2022/11/11 10:08:30;;;;;;;1.77;0.65;;;;;;;13.75;58.01;97790.56;10407556;28;20596;-74
2022/11/11 10:13:52;;;;;;;3.92;0.90;;;;;;;13.13;58.46;97779.84;10409015;28;20653;-75
2022/11/11 10:19:30;;;;;;;2.40;0.80;;;;;;;12.88;60.52;97819.00;10402197;28;20631;-73
2022/11/11 10:25:02;;;;;;;2.13;0.82;;;;;;;13.06;57.94;97773.50;10380471;28;20314;-72
2022/11/11 10:30:25;;;;;;;2.95;1.00;;;;;;;13.15;57.58;97773.47;10384306;28;20201;-73
2022/11/11 10:35:46;;;;;;;2.90;0.70;;;;;;;13.24;57.52;97774.38;10381265;28;20292;-73
2022/11/11 10:41:22;;;;;;;1.67;0.90;;;;;;;13.52;56.76;97764.72;10392517;28;20196;-75
2022/11/11 10:46:46;;;;;;;5.15;0.80;;;;;;;14.55;56.46;97776.56;10391899;28;20712;-75
2022/11/11 10:52:15;;;;;;;4.05;1.00;;;;;;;14.47;55.93;97774.69;10407423;28;20204;-76
2022/11/11 10:57:56;;;;;;;1.80;0.80;;;;;;;14.66;55.24;97762.34;10432998;28;20192;-75
2022/11/11 11:03:23;;;;;;;2.80;0.90;;;;;;;14.20;55.22;97755.41;10432642;28;20707;-75
2022/11/11 11:08:47;;;;;;;0.95;0.60;;;;;;;14.23;55.03;97770.09;10446978;28;20311;-75
2022/11/11 11:14:31;;;;;;;1.75;0.82;;;;;;;14.14;54.85;97771.00;10432631;28;20191;-75
2022/11/11 11:20:10;;;;;;;0.60;0.55;;;;;;;13.63;56.77;97789.13;10433215;28;20192;-74
2022/11/11 11:25:34;;;;;;;1.27;0.52;;;;;;;13.79;55.67;97773.50;10453776;28;20341;-74
2022/11/11 11:31:02;;;;;;;1.27;0.60;;;;;;;13.84;55.80;97778.31;10445870;28;20200;-75
2022/11/11 11:36:21;;;;;;;1.58;0.80;;;;;;;13.98;55.18;97758.50;10460805;28;20700;-75
2022/11/11 11:41:42;;;;;;;0.77;0.70;;;;;;;14.73;53.99;97744.88;10461265;28;20191;-75
2022/11/11 11:47:23;;;;;;;1.00;0.70;;;;;;;14.49;54.00;97756.09;10462339;28;20310;-75
2022/11/11 11:53:29;;;;;;;1.08;0.70;;;;;;;15.06;54.90;97772.25;10419137;28;20208;-76
2022/11/11 11:59:00;;;;;;;2.80;0.80;;;;;;;14.87;53.73;97746.09;10413764;28;20205;-75
2022/11/11 12:04:54;;;;;;;0.80;0.80;;;;;;;15.18;53.88;97767.50;10378434;28;20197;-75
2022/11/11 12:10:36;;;;;;;1.20;0.80;;;;;;;15.02;55.19;97778.81;10378952;28;20197;-75
2022/11/11 12:16:03;;;;;;;1.45;0.98;;;;;;;15.01;55.21;97771.91;10375620;28;20192;-75
2022/11/11 12:21:26;;;;;;;3.63;1.45;;;;;;;15.12;55.54;97778.72;10376518;28;20621;-76
2022/11/11 12:26:56;;;;;;;3.72;1.90;;;;;;;15.05;56.11;97804.88;10380324;28;20251;-75
2022/11/11 12:32:40;;;;;;;2.45;1.95;;;;;;;14.75;56.80;97793.03;10403863;28;20232;-75
2022/11/11 12:38:36;;;;;;;3.67;1.00;;;;;;;15.22;55.17;97778.56;10393082;28;20592;-76
2022/11/11 12:44:02;;;;;;;2.10;0.98;;;;;;;15.08;55.95;97778.19;10443161;28;20571;-75
2022/11/11 12:49:53;;;;;;;2.85;1.08;;;;;;;14.92;55.75;97773.66;10454571;28;20259;-75
2022/11/11 12:55:23;;;;;;;1.58;1.00;;;;;;;15.11;55.06;97762.03;10439810;28;20987;-76
2022/11/11 13:01:12;;;;;;;2.78;1.10;;;;;;;15.59;55.15;97770.28;10398414;28;20593;-76
2022/11/11 13:06:41;;;;;;;1.83;0.95;;;;;;;15.91;53.54;97750.19;10412186;28;20603;-76
2022/11/11 13:12:20;;;;;;;1.05;0.90;;;;;;;15.42;53.85;97736.88;10412628;28;20819;-75
2022/11/11 13:17:39;;;;;;;2.72;1.33;;;;;;;14.96;56.65;97782.09;10412599;28;20272;-75
2022/11/11 13:22:58;;;;;;;2.80;1.45;;;;;;;14.82;56.27;97766.84;10412007;28;20200;-75
2022/11/11 13:28:44;;;;;;;2.10;1.42;;;;;;;14.61;57.97;97800.53;10410345;28;20283;-77
2022/11/11 13:34:08;;;;;;;1.52;1.20;;;;;;;14.38;57.53;97797.56;10395489;28;20632;-75
2022/11/11 13:39:34;;;;;;;2.05;1.30;;;;;;;14.15;58.48;97815.66;10395913;28;20271;-76
2022/11/11 13:44:55;;;;;;;5.63;2.30;;;;;;;13.97;59.34;97830.66;10394751;28;20196;-75
2022/11/11 13:50:28;;;;;;;2.65;1.30;;;;;;;13.44;62.01;97871.72;10410146;28;20224;-76
2022/11/11 13:55:48;;;;;;;1.50;1.33;;;;;;;13.45;61.46;97852.31;10394518;28;20646;-75
2022/11/11 14:01:09;;;;;;;2.90;1.50;;;;;;;12.99;63.64;97891.66;10341333;28;20654;-74
2022/11/11 14:06:35;;;;;;;2.22;1.48;;;;;;;12.92;63.89;97894.00;10402463;28;20596;-77
2022/11/11 14:12:52;;;;;;;27.98;16.42;;;;;;;13.02;63.31;97889.56;10400287;28;20207;-76
2022/11/11 14:18:17;;;;;;;8.48;5.78;;;;;;;12.71;64.66;97907.34;10326410;28;20369;-75
2022/11/11 14:23:39;;;;;;;9.27;5.35;;;;;;;12.44;67.45;97958.81;10441022;28;20274;-75
2022/11/11 14:29:02;;;;;;;26.52;16.15;;;;;;;12.26;68.93;97978.84;10435077;28;20227;-76
2022/11/11 14:34:36;;;;;;;293.27;146.05;;;;;;;11.21;73.71;98027.97;10450314;28;20274;-75
2022/11/11 14:39:55;;;;;;;10.93;5.45;;;;;;;11.58;73.95;98014.38;10353919;28;20233;-76
2022/11/11 14:45:29;;;;;;;20.75;9.32;;;;;;;11.41;72.93;97965.97;10388547;28;20185;-76
2022/11/11 14:50:48;;;;;;;6.68;3.72;;;;;;;11.21;73.48;97966.84;10387595;28;20208;-75
2022/11/11 14:56:14;;;;;;;4.15;2.65;;;;;;;11.14;74.37;97982.22;10357551;28;20197;-75
2022/11/11 15:01:33;;;;;;;4.68;2.50;;;;;;;11.04;75.64;97994.44;10352531;28;20205;-75
2022/11/11 15:07:00;;;;;;;13.37;9.37;;;;;;;10.63;76.85;98002.16;10354065;28;20216;-75
2022/11/11 15:12:31;;;;;;;7.43;5.13;;;;;;;10.65;76.73;97987.13;10392586;28;20205;-75
2022/11/11 15:17:56;;;;;;;4.93;3.63;;;;;;;10.62;76.23;97992.63;10408537;28;20830;-75
2022/11/11 15:23:31;;;;;;;5.80;2.50;;;;;;;10.49;77.21;97989.31;10408193;28;20193;-75
2022/11/11 15:29:04;;;;;;;5.22;3.15;;;;;;;10.35;77.76;98014.88;10407660;28;20224;-75
2022/11/11 15:34:49;;;;;;;5.53;3.30;;;;;;;10.17;78.69;98013.69;10392605;28;20192;-74
2022/11/11 15:40:18;;;;;;;8.47;3.27;;;;;;;10.11;78.63;98020.22;10397078;28;20240;-75
2022/11/11 15:45:37;;;;;;;3.03;2.00;;;;;;;10.00;80.25;98026.31;10383582;28;20208;-74
2022/11/11 15:50:56;;;;;;;5.20;3.20;;;;;;;9.89;79.37;98017.63;10406418;28;20647;-75
2022/11/11 15:56:32;;;;;;;3.90;1.90;;;;;;;9.73;81.11;98021.44;10406675;28;20873;-75
2022/11/11 16:01:51;;;;;;;6.93;3.73;;;;;;;9.73;80.79;98018.00;10407007;28;20201;-76
2022/11/11 16:07:22;;;;;;;4.07;2.10;;;;;;;9.58;81.62;98020.00;10390208;28;20223;-76
2022/11/11 16:12:55;;;;;;;5.77;3.40;;;;;;;9.47;81.80;98026.06;10425650;28;20208;-77
2022/11/11 16:18:17;;;;;;;8.33;4.67;;;;;;;9.40;82.32;98035.31;10438376;28;20180;-75
2022/11/11 16:23:37;;;;;;;8.70;5.93;;;;;;;9.16;83.14;98036.22;10451032;28;20193;-77
2022/11/11 16:28:57;;;;;;;4.27;2.40;;;;;;;9.15;83.02;98031.09;10414191;28;20255;-76
2022/11/11 16:34:28;;;;;;;5.03;2.93;;;;;;;9.08;84.51;98044.63;10399318;28;20200;-76
2022/11/11 16:39:47;;;;;;;8.43;2.60;;;;;;;8.87;85.24;98047.06;10387768;28;20215;-76
2022/11/11 16:45:18;;;;;;;5.90;3.07;;;;;;;8.90;83.96;98036.38;10431704;28;20192;-76
2022/11/11 16:50:54;;;;;;;2.73;2.07;;;;;;;8.87;83.74;98022.72;10409046;28;20197;-76
2022/11/11 16:56:32;;;;;;;5.43;4.40;;;;;;;8.89;82.31;98003.34;10388133;28;20660;-76
2022/11/11 17:01:52;;;;;;;6.87;3.77;;;;;;;8.77;83.91;98030.38;10445678;28;20751;-74
2022/11/11 17:07:30;;;;;;;5.73;3.87;;;;;;;8.56;85.11;98046.69;10433997;28;20589;-76
2022/11/11 17:12:56;;;;;;;4.93;3.20;;;;;;;8.52;85.15;98049.63;10449914;28;20200;-77
2022/11/11 17:18:23;;;;;;;5.10;3.27;;;;;;;8.35;85.71;98048.19;10418951;28;20193;-74
2022/11/11 17:24:03;;;;;;;21.60;11.27;;;;;;;8.17;86.66;98056.38;10406182;28;20193;-74
2022/11/11 17:29:51;;;;;;;14.17;9.43;;;;;;;8.20;85.67;98037.88;10423976;28;20228;-74
2022/11/11 17:35:14;;;;;;;5.33;3.27;;;;;;;8.19;84.91;98040.59;10389793;28;20236;-74
2022/11/11 17:40:33;;;;;;;13.13;9.73;;;;;;;8.16;84.31;98040.81;10410698;28;20228;-75
2022/11/11 17:45:52;;;;;;;5.87;3.53;;;;;;;8.05;84.84;98059.84;10399893;28;20221;-77
2022/11/11 17:51:11;;;;;;;7.13;2.93;;;;;;;7.99;84.63;98057.66;10411976;28;20688;-76
2022/11/11 17:56:30;;;;;;;3.13;1.90;;;;;;;7.72;86.47;98074.28;10410812;28;20201;-76
2022/11/11 18:01:49;;;;;;;2.20;1.77;;;;;;;7.53;88.00;98094.72;10410541;28;20193;-76
2022/11/11 18:07:08;;;;;;;2.27;1.83;;;;;;;7.46;88.86;98096.91;10410384;28;20225;-75
2022/11/11 18:12:28;;;;;;;4.80;3.10;;;;;;;7.32;89.20;98109.09;10410271;28;20197;-76
2022/11/11 18:17:47;;;;;;;4.03;2.20;;;;;;;7.63;85.50;98065.31;10409718;28;20189;-76
2022/11/11 18:23:06;;;;;;;2.57;2.13;;;;;;;7.77;82.84;98040.06;10410043;28;20196;-76
2022/11/11 18:28:32;;;;;;;4.77;2.13;;;;;;;7.64;83.65;98050.47;10409810;28;20220;-76
2022/11/11 18:33:51;;;;;;;5.20;2.67;;;;;;;7.56;83.54;98040.56;10394347;28;20204;-76
2022/11/11 18:39:10;;;;;;;5.33;2.63;;;;;;;7.37;84.73;98061.03;10409144;28;20232;-76
2022/11/11 18:44:29;;;;;;;4.37;2.63;;;;;;;7.35;84.81;98047.25;10408963;28;20201;-76
2022/11/11 18:49:48;;;;;;;4.60;2.53;;;;;;;7.24;84.62;98055.78;10408021;28;20585;-76
2022/11/11 18:55:07;;;;;;;4.20;2.20;;;;;;;7.17;84.73;98055.38;10407156;28;20200;-76
2022/11/11 19:00:26;;;;;;;2.20;1.47;;;;;;;7.00;85.90;98066.06;10408027;28;20205;-75
2022/11/11 19:05:45;;;;;;;5.73;1.80;;;;;;;6.96;85.53;98070.63;10407081;28;20192;-75
2022/11/11 19:11:05;;;;;;;4.97;2.70;;;;;;;7.13;83.67;98043.47;10408303;28;20232;-75
2022/11/11 19:16:25;;;;;;;10.53;5.20;;;;;;;7.05;83.09;98049.19;10391400;28;20569;-76
2022/11/11 19:21:44;;;;;;;6.43;3.43;;;;;;;7.35;80.07;98026.38;10408131;28;20264;-75
2022/11/11 19:27:03;;;;;;;3.07;2.43;;;;;;;7.44;78.96;98017.94;10400482;28;20217;-76
2022/11/11 19:32:31;;;;;;;3.60;3.17;;;;;;;7.41;78.83;98029.44;10370833;28;20283;-76
2022/11/11 19:37:51;;;;;;;2.63;2.20;;;;;;;7.30;79.12;98035.38;10366040;28;20397;-76
2022/11/11 19:43:10;;;;;;;5.10;1.80;;;;;;;7.28;78.93;98036.41;10337976;28;20201;-75
2022/11/11 19:48:29;;;;;;;4.53;2.40;;;;;;;7.25;78.71;98031.41;10334591;28;20312;-76
2022/11/11 19:53:50;;;;;;;6.63;1.77;;;;;;;7.20;78.84;98036.06;10333341;28;20654;-75
2022/11/11 19:59:09;;;;;;;5.43;2.27;;;;;;;7.10;79.37;98052.31;10332984;28;20666;-75
2022/11/11 20:04:28;;;;;;;3.47;2.30;;;;;;;7.02;79.12;98045.97;10333165;28;20217;-76
2022/11/11 20:09:47;;;;;;;4.43;2.40;;;;;;;6.86;79.97;98057.38;10332538;28;20226;-75
2022/11/11 20:15:06;;;;;;;2.37;1.63;;;;;;;6.79;80.09;98066.53;10332349;28;20194;-76
2022/11/11 20:20:26;;;;;;;3.63;1.60;;;;;;;6.66;80.55;98070.84;10332273;28;20580;-75
2022/11/11 20:25:45;;;;;;;2.73;1.17;;;;;;;6.76;79.65;98061.50;10330535;28;20197;-75
2022/11/11 20:31:09;;;;;;;2.30;1.70;;;;;;;6.59;80.57;98073.84;10331882;28;20202;-75
2022/11/11 20:36:28;;;;;;;2.50;1.30;;;;;;;6.46;82.04;98095.53;10338047;28;20233;-75
2022/11/11 20:41:47;;;;;;;1.90;1.67;;;;;;;6.36;81.93;98103.09;10371739;28;20201;-75
2022/11/11 20:47:07;;;;;;;7.20;1.93;;;;;;;6.23;82.84;98097.81;10371896;28;20690;-75
2022/11/11 20:52:26;;;;;;;3.73;1.80;;;;;;;6.12;83.26;98111.47;10371930;28;20666;-76
2022/11/11 20:57:45;;;;;;;3.03;1.63;;;;;;;6.11;83.63;98107.22;10369393;28;20268;-75
2022/11/11 21:03:04;;;;;;;3.30;2.00;;;;;;;6.14;82.21;98103.56;10356243;28;20662;-75
2022/11/11 21:08:25;;;;;;;3.20;2.03;;;;;;;6.11;82.14;98102.03;10369096;28;20748;-76
2022/11/11 21:13:46;;;;;;;1.67;1.33;;;;;;;6.14;81.18;98093.16;10370893;28;20201;-75
2022/11/11 21:19:05;;;;;;;1.50;1.30;;;;;;;6.14;81.04;98086.22;10370301;28;20197;-75
2022/11/11 21:24:24;;;;;;;2.47;1.40;;;;;;;6.20;80.13;98074.56;10369602;28;20205;-75
2022/11/11 21:29:43;;;;;;;3.00;1.50;;;;;;;6.15;80.33;98072.25;10355114;28;20697;-75
2022/11/11 21:35:02;;;;;;;4.70;1.40;;;;;;;6.06;80.48;98071.09;10369770;28;20190;-76
2022/11/11 21:40:21;;;;;;;1.73;1.20;;;;;;;5.86;81.87;98090.44;10369106;28;20221;-75
2022/11/11 21:45:40;;;;;;;3.23;1.30;;;;;;;5.63;83.15;98122.19;10368901;28;20657;-75
2022/11/11 21:51:08;;;;;;;5.77;1.50;;;;;;;5.46;84.49;98131.81;10369268;28;20649;-76
2022/11/11 21:56:29;;;;;;;3.70;1.43;;;;;;;5.55;83.69;98114.84;10353739;28;20193;-75
2022/11/11 22:01:48;;;;;;;1.33;1.20;;;;;;;5.53;83.57;98104.56;10369618;28;20193;-75
2022/11/11 22:07:07;;;;;;;1.50;1.17;;;;;;;5.48;83.20;98111.78;10352488;28;20221;-75
2022/11/11 22:12:26;;;;;;;2.47;1.07;;;;;;;5.42;84.42;98121.69;10368778;28;20196;-75
2022/11/11 22:17:45;;;;;;;2.10;1.40;;;;;;;5.38;84.18;98123.66;10368291;28;20657;-75
2022/11/11 22:23:04;;;;;;;2.47;1.43;;;;;;;5.36;83.88;98113.34;10390542;28;20291;-75
2022/11/11 22:28:23;;;;;;;1.40;1.10;;;;;;;5.31;84.06;98124.91;10367635;28;20225;-75
2022/11/11 22:33:43;;;;;;;0.90;0.90;;;;;;;5.27;84.05;98132.06;10360519;28;20204;-75
2022/11/11 22:39:03;;;;;;;3.57;0.97;;;;;;;5.23;84.35;98130.56;10387205;28;20236;-75
2022/11/11 22:44:21;;;;;;;1.70;1.23;;;;;;;5.12;85.10;98138.97;10377673;28;20197;-75
2022/11/11 22:49:40;;;;;;;2.93;1.20;;;;;;;5.12;84.38;98140.72;10353159;28;20681;-75
2022/11/11 22:54:59;;;;;;;2.83;1.67;;;;;;;5.22;83.65;98113.28;10366849;28;20528;-75
2022/11/11 23:00:18;;;;;;;1.50;1.20;;;;;;;5.22;83.23;98105.47;10366062;28;20197;-75
2022/11/11 23:05:37;;;;;;;3.17;1.37;;;;;;;5.34;81.78;98083.16;10367188;28;20193;-75
2022/11/11 23:11:10;;;;;;;2.03;1.40;;;;;;;5.26;82.19;98081.00;10367958;28;20653;-75
2022/11/11 23:16:30;;;;;;;1.23;1.13;;;;;;;5.20;82.25;98094.34;10367364;28;20305;-75
2022/11/11 23:21:48;;;;;;;2.17;1.20;;;;;;;5.29;81.72;98080.00;10367163;28;20200;-76
2022/11/11 23:27:07;;;;;;;1.43;0.90;;;;;;;5.17;81.83;98082.38;10366961;28;20229;-75
2022/11/11 23:32:26;;;;;;;2.97;1.00;;;;;;;5.11;82.62;98087.91;10367520;28;20193;-75
2022/11/11 23:37:45;;;;;;;1.70;0.80;;;;;;;5.14;82.14;98086.91;10367120;28;20327;-75
2022/11/11 23:43:04;;;;;;;5.20;1.00;;;;;;;5.09;81.63;98084.59;10367256;28;20189;-75
2022/11/11 23:48:24;;;;;;;1.50;0.97;;;;;;;5.11;81.74;98087.09;10366454;28;20221;-75
2022/11/11 23:53:43;;;;;;;3.13;1.30;;;;;;;4.98;82.76;98093.00;10367100;28;20189;-75
2022/11/11 23:59:02;;;;;;;1.80;1.10;;;;;;;4.80;84.07;98104.41;10366701;28;20193;-75
